sensor_id;sensor_type;location;lat;lon;timestamp;pressure;altitude;pressure_sealevel;temperature;humidity
16834;BME280;8533;48.426;10.868;2023-02-15T00:01:36;97535.67;;;-1.75;100.00
16834;BME280;8533;48.426;10.868;2023-02-15T00:04:05;97533.23;;;-1.76;100.00
16834;BME280;8533;48.426;10.868;2023-02-15T00:06:33;97531.77;;;-1.79;100.00
16834;BME280;8533;48.426;10.868;2023-02-15T00:09:02;97533.76;;;-1.92;100.00
16834;BME280;8533;48.426;10.868;2023-02-15T00:11:30;97528.59;;;-1.86;100.00
16834;BME280;8533;48.426;10.868;2023-02-15T00:14:15;97533.76;;;-1.92;100.00
16834;BME280;8533;48.426;10.868;2023-02-15T00:16:44;97529.10;;;-1.93;100.00
16834;BME280;8533;48.426;10.868;2023-02-15T00:19:13;97534.91;;;-1.90;100.00
16834;BME280;8533;48.426;10.868;2023-02-15T00:21:42;97528.84;;;-1.89;100.00
16834;BME280;8533;48.426;10.868;2023-02-15T00:24:11;97528.83;;;-1.99;100.00
16834;BME280;8533;48.426;10.868;2023-02-15T00:26:40;97531.79;;;-1.94;100.00
16834;BME280;8533;48.426;10.868;2023-02-15T00:29:08;97536.39;;;-1.98;100.00
16834;BME280;8533;48.426;10.868;2023-02-15T00:31:37;97532.35;;;-1.90;100.00
16834;BME280;8533;48.426;10.868;2023-02-15T00:34:07;97531.16;;;-1.86;100.00
16834;BME280;8533;48.426;10.868;2023-02-15T00:36:35;97534.05;;;-1.95;100.00
16834;BME280;8533;48.426;10.868;2023-02-15T00:39:03;97528.91;;;-1.85;100.00
16834;BME280;8533;48.426;10.868;2023-02-15T00:41:32;97530.41;;;-1.83;100.00
16834;BME280;8533;48.426;10.868;2023-02-15T00:44:00;97531.81;;;-1.84;100.00
16834;BME280;8533;48.426;10.868;2023-02-15T00:46:28;97517.19;;;-1.88;100.00
16834;BME280;8533;48.426;10.868;2023-02-15T00:48:56;97515.07;;;-1.98;100.00
16834;BME280;8533;48.426;10.868;2023-02-15T00:51:24;97517.61;;;-2.08;100.00
16834;BME280;8533;48.426;10.868;2023-02-15T00:53:52;97520.14;;;-2.17;100.00
16834;BME280;8533;48.426;10.868;2023-02-15T00:56:20;97518.73;;;-2.16;100.00
16834;BME280;8533;48.426;10.868;2023-02-15T00:58:47;97511.87;;;-2.15;100.00
16834;BME280;8533;48.426;10.868;2023-02-15T01:01:17;97510.05;;;-2.19;100.00
16834;BME280;8533;48.426;10.868;2023-02-15T01:03:46;97506.30;;;-2.30;100.00
16834;BME280;8533;48.426;10.868;2023-02-15T01:06:15;97503.21;;;-2.24;100.00
16834;BME280;8533;48.426;10.868;2023-02-15T01:08:45;97502.77;;;-2.14;100.00
16834;BME280;8533;48.426;10.868;2023-02-15T01:11:15;97495.83;;;-2.08;100.00
16834;BME280;8533;48.426;10.868;2023-02-15T01:13:45;97499.95;;;-2.01;100.00
16834;BME280;8533;48.426;10.868;2023-02-15T01:16:12;97499.70;;;-1.98;100.00
16834;BME280;8533;48.426;10.868;2023-02-15T01:18:39;97501.05;;;-2.04;100.00
16834;BME280;8533;48.426;10.868;2023-02-15T01:21:17;97496.39;;;-2.04;100.00
16834;BME280;8533;48.426;10.868;2023-02-15T01:23:41;97492.42;;;-2.03;100.00
16834;BME280;8533;48.426;10.868;2023-02-15T01:26:10;97487.89;;;-2.05;100.00
16834;BME280;8533;48.426;10.868;2023-02-15T01:28:37;97492.55;;;-2.04;100.00
16834;BME280;8533;48.426;10.868;2023-02-15T01:31:10;97494.30;;;-2.05;100.00
16834;BME280;8533;48.426;10.868;2023-02-15T01:33:39;97496.58;;;-2.11;100.00
16834;BME280;8533;48.426;10.868;2023-02-15T01:36:07;97493.99;;;-2.21;100.00
16834;BME280;8533;48.426;10.868;2023-02-15T01:38:35;97500.06;;;-2.22;100.00
16834;BME280;8533;48.426;10.868;2023-02-15T01:41:03;97493.71;;;-2.18;100.00
16834;BME280;8533;48.426;10.868;2023-02-15T01:44:00;97485.86;;;-2.11;100.00
16834;BME280;8533;48.426;10.868;2023-02-15T01:49:03;97488.28;;;-2.00;100.00
16834;BME280;8533;48.426;10.868;2023-02-15T01:51:33;97488.03;;;-1.97;100.00
16834;BME280;8533;48.426;10.868;2023-02-15T01:54:15;97478.70;;;-2.07;100.00
16834;BME280;8533;48.426;10.868;2023-02-15T01:56:40;97470.42;;;-2.05;100.00
16834;BME280;8533;48.426;10.868;2023-02-15T01:59:11;97471.77;;;-2.11;100.00
16834;BME280;8533;48.426;10.868;2023-02-15T02:01:38;97473.05;;;-2.11;100.00
16834;BME280;8533;48.426;10.868;2023-02-15T02:04:14;97474.02;;;-2.17;100.00
16834;BME280;8533;48.426;10.868;2023-02-15T02:06:41;97470.05;;;-2.16;100.00
16834;BME280;8533;48.426;10.868;2023-02-15T02:09:09;97466.75;;;-2.22;100.00
16834;BME280;8533;48.426;10.868;2023-02-15T02:11:36;97463.77;;;-2.17;100.00
16834;BME280;8533;48.426;10.868;2023-02-15T02:14:05;97466.55;;;-2.15;100.00
16834;BME280;8533;48.426;10.868;2023-02-15T02:22:14;97476.67;;;-2.13;100.00
16834;BME280;8533;48.426;10.868;2023-02-15T02:30:27;97464.82;;;-2.05;100.00
16834;BME280;8533;48.426;10.868;2023-02-15T02:33:18;97463.88;;;-2.04;100.00
16834;BME280;8533;48.426;10.868;2023-02-15T02:35:57;97464.69;;;-2.03;100.00
16834;BME280;8533;48.426;10.868;2023-02-15T02:38:37;97461.45;;;-2.05;100.00
16834;BME280;8533;48.426;10.868;2023-02-15T02:41:06;97461.23;;;-2.08;100.00
16834;BME280;8533;48.426;10.868;2023-02-15T02:43:38;97465.36;;;-2.11;100.00
16834;BME280;8533;48.426;10.868;2023-02-15T02:46:10;97465.99;;;-2.18;100.00
16834;BME280;8533;48.426;10.868;2023-02-15T02:48:35;97461.30;;;-2.13;100.00
16834;BME280;8533;48.426;10.868;2023-02-15T02:51:03;97463.27;;;-2.11;100.00
16834;BME280;8533;48.426;10.868;2023-02-15T02:53:31;97462.11;;;-2.13;100.00
16834;BME280;8533;48.426;10.868;2023-02-15T02:56:15;97458.38;;;-2.24;100.00
16834;BME280;8533;48.426;10.868;2023-02-15T02:58:44;97452.31;;;-2.23;100.00
16834;BME280;8533;48.426;10.868;2023-02-15T03:01:13;97458.38;;;-2.24;100.00
16834;BME280;8533;48.426;10.868;2023-02-15T03:03:54;97452.11;;;-2.35;100.00
16834;BME280;8533;48.426;10.868;2023-02-15T03:06:18;97452.61;;;-2.41;100.00
16834;BME280;8533;48.426;10.868;2023-02-15T03:08:50;97444.58;;;-2.42;100.00
16834;BME280;8533;48.426;10.868;2023-02-15T03:11:16;97445.95;;;-2.38;100.00
16834;BME280;8533;48.426;10.868;2023-02-15T03:13:46;97439.36;;;-2.31;100.00
16834;BME280;8533;48.426;10.868;2023-02-15T03:16:16;97443.94;;;-2.25;100.00
16834;BME280;8533;48.426;10.868;2023-02-15T03:19:05;97443.29;;;-2.27;100.00
16834;BME280;8533;48.426;10.868;2023-02-15T03:21:35;97436.67;;;-2.29;100.00
16834;BME280;8533;48.426;10.868;2023-02-15T03:24:13;97443.14;;;-2.35;100.00
16834;BME280;8533;48.426;10.868;2023-02-15T03:26:36;97439.80;;;-2.41;100.00
16834;BME280;8533;48.426;10.868;2023-02-15T03:29:06;97443.07;;;-2.29;100.00
16834;BME280;8533;48.426;10.868;2023-02-15T03:31:37;97441.92;;;-2.31;100.00
16834;BME280;8533;48.426;10.868;2023-02-15T03:34:08;97440.70;;;-2.37;100.00
16834;BME280;8533;48.426;10.868;2023-02-15T03:39:22;97439.70;;;-2.30;100.00
16834;BME280;8533;48.426;10.868;2023-02-15T03:41:55;97445.29;;;-2.31;100.00
16834;BME280;8533;48.426;10.868;2023-02-15T03:44:31;97440.38;;;-2.28;100.00
16834;BME280;8533;48.426;10.868;2023-02-15T03:47:04;97440.73;;;-2.27;100.00
16834;BME280;8533;48.426;10.868;2023-02-15T03:49:54;97442.00;;;-2.27;100.00
16834;BME280;8533;48.426;10.868;2023-02-15T03:52:22;97447.94;;;-2.17;100.00
16834;BME280;8533;48.426;10.868;2023-02-15T03:54:51;97454.42;;;-2.13;100.00
16834;BME280;8533;48.426;10.868;2023-02-15T03:57:24;97442.16;;;-2.19;100.00
16834;BME280;8533;48.426;10.868;2023-02-15T04:05:45;97437.23;;;-2.07;100.00
16834;BME280;8533;48.426;10.868;2023-02-15T04:08:12;97441.94;;;-2.02;100.00
16834;BME280;8533;48.426;10.868;2023-02-15T04:10:40;97439.12;;;-1.99;100.00
16834;BME280;8533;48.426;10.868;2023-02-15T04:13:22;97446.65;;;-2.17;100.00
16834;BME280;8533;48.426;10.868;2023-02-15T04:15:51;97452.66;;;-2.22;100.00
16834;BME280;8533;48.426;10.868;2023-02-15T04:18:38;97447.80;;;-2.15;100.00
16834;BME280;8533;48.426;10.868;2023-02-15T04:21:25;97443.08;;;-2.10;100.00
16834;BME280;8533;48.426;10.868;2023-02-15T04:24:11;97435.46;;;-2.16;100.00
16834;BME280;8533;48.426;10.868;2023-02-15T04:26:57;97434.32;;;-2.08;100.00
16834;BME280;8533;48.426;10.868;2023-02-15T04:29:26;97435.01;;;-2.06;100.00
16834;BME280;8533;48.426;10.868;2023-02-15T04:31:56;97435.33;;;-2.14;100.00
16834;BME280;8533;48.426;10.868;2023-02-15T04:34:24;97440.20;;;-2.11;100.00
16834;BME280;8533;48.426;10.868;2023-02-15T04:36:51;97446.53;;;-2.06;100.00
16834;BME280;8533;48.426;10.868;2023-02-15T04:39:19;97437.44;;;-2.04;100.00
16834;BME280;8533;48.426;10.868;2023-02-15T04:41:47;97436.55;;;-1.99;100.00
16834;BME280;8533;48.426;10.868;2023-02-15T04:44:14;97429.33;;;-2.09;100.00
16834;BME280;8533;48.426;10.868;2023-02-15T04:46:42;97434.80;;;-2.08;100.00
16834;BME280;8533;48.426;10.868;2023-02-15T04:49:09;97440.86;;;-2.09;100.00
16834;BME280;8533;48.426;10.868;2023-02-15T04:51:37;97433.59;;;-2.04;100.00
16834;BME280;8533;48.426;10.868;2023-02-15T04:54:04;97438.30;;;-2.00;100.00
16834;BME280;8533;48.426;10.868;2023-02-15T04:56:32;97436.48;;;-1.94;100.00
16834;BME280;8533;48.426;10.868;2023-02-15T04:59:01;97430.96;;;-1.89;100.00
16834;BME280;8533;48.426;10.868;2023-02-15T05:01:28;97432.16;;;-1.93;100.00
16834;BME280;8533;48.426;10.868;2023-02-15T05:03:57;97431.52;;;-1.95;100.00
16834;BME280;8533;48.426;10.868;2023-02-15T05:06:24;97426.09;;;-1.92;100.00
16834;BME280;8533;48.426;10.868;2023-02-15T05:08:51;97428.05;;;-2.00;100.00
16834;BME280;8533;48.426;10.868;2023-02-15T05:11:19;97424.13;;;-1.94;100.00
16834;BME280;8533;48.426;10.868;2023-02-15T05:13:46;97423.35;;;-1.95;100.00
16834;BME280;8533;48.426;10.868;2023-02-15T05:16:14;97420.11;;;-1.97;100.00
16834;BME280;8533;48.426;10.868;2023-02-15T05:18:44;97418.48;;;-1.98;100.00
16834;BME280;8533;48.426;10.868;2023-02-15T05:21:11;97418.48;;;-1.98;100.00
16834;BME280;8533;48.426;10.868;2023-02-15T05:23:44;97421.39;;;-1.97;100.00
16834;BME280;8533;48.426;10.868;2023-02-15T05:26:16;97425.78;;;-2.03;100.00
16834;BME280;8533;48.426;10.868;2023-02-15T05:29:00;97419.03;;;-2.04;100.00
16834;BME280;8533;48.426;10.868;2023-02-15T05:31:27;97416.18;;;-2.01;100.00
16834;BME280;8533;48.426;10.868;2023-02-15T05:33:55;97420.83;;;-2.10;100.00
16834;BME280;8533;48.426;10.868;2023-02-15T05:36:22;97438.23;;;-2.13;100.00
16834;BME280;8533;48.426;10.868;2023-02-15T05:38:50;97428.98;;;-2.10;100.00
16834;BME280;8533;48.426;10.868;2023-02-15T05:41:19;97425.02;;;-2.09;100.00
16834;BME280;8533;48.426;10.868;2023-02-15T05:43:47;97434.52;;;-2.15;100.00
16834;BME280;8533;48.426;10.868;2023-02-15T05:46:14;97437.95;;;-2.10;100.00
16834;BME280;8533;48.426;10.868;2023-02-15T05:48:46;97427.23;;;-2.10;100.00
16834;BME280;8533;48.426;10.868;2023-02-15T05:51:13;97432.83;;;-2.10;100.00
16834;BME280;8533;48.426;10.868;2023-02-15T05:53:42;97438.70;;;-2.14;100.00
16834;BME280;8533;48.426;10.868;2023-02-15T05:56:23;97440.45;;;-2.14;100.00
16834;BME280;8533;48.426;10.868;2023-02-15T05:58:48;97435.59;;;-2.17;100.00
16834;BME280;8533;48.426;10.868;2023-02-15T06:01:18;97442.68;;;-2.15;100.00
16834;BME280;8533;48.426;10.868;2023-02-15T06:03:50;97441.95;;;-2.12;100.00
16834;BME280;8533;48.426;10.868;2023-02-15T06:09:09;97443.08;;;-2.10;100.00
16834;BME280;8533;48.426;10.868;2023-02-15T06:11:37;97442.95;;;-2.09;100.00
16834;BME280;8533;48.426;10.868;2023-02-15T06:14:04;97445.11;;;-2.14;100.00
16834;BME280;8533;48.426;10.868;2023-02-15T06:16:32;97445.31;;;-2.21;100.00
16834;BME280;8533;48.426;10.868;2023-02-15T06:18:59;97448.56;;;-2.19;100.00
16834;BME280;8533;48.426;10.868;2023-02-15T06:21:29;97448.40;;;-2.17;100.00
16834;BME280;8533;48.426;10.868;2023-02-15T06:23:56;97451.08;;;-2.38;100.00
16834;BME280;8533;48.426;10.868;2023-02-15T06:26:24;97448.36;;;-2.46;100.00
16834;BME280;8533;48.426;10.868;2023-02-15T06:28:51;97452.95;;;-2.40;100.00
16834;BME280;8533;48.426;10.868;2023-02-15T06:31:19;97452.41;;;-2.34;100.00
16834;BME280;8533;48.426;10.868;2023-02-15T06:33:46;97454.04;;;-2.33;100.00
16834;BME280;8533;48.426;10.868;2023-02-15T06:36:13;97456.13;;;-2.33;100.00
16834;BME280;8533;48.426;10.868;2023-02-15T06:38:41;97460.06;;;-2.28;100.00
16834;BME280;8533;48.426;10.868;2023-02-15T06:41:09;97458.35;;;-2.34;100.00
16834;BME280;8533;48.426;10.868;2023-02-15T06:43:36;97455.95;;;-2.35;100.00
16834;BME280;8533;48.426;10.868;2023-02-15T06:46:04;97457.16;;;-2.29;100.00
16834;BME280;8533;48.426;10.868;2023-02-15T06:48:31;97465.84;;;-2.26;100.00
16834;BME280;8533;48.426;10.868;2023-02-15T06:50:58;97464.78;;;-2.24;100.00
16834;BME280;8533;48.426;10.868;2023-02-15T06:53:26;97463.78;;;-2.27;100.00
16834;BME280;8533;48.426;10.868;2023-02-15T06:56:06;97469.44;;;-2.23;100.00
16834;BME280;8533;48.426;10.868;2023-02-15T06:58:31;97468.03;;;-2.22;100.00
16834;BME280;8533;48.426;10.868;2023-02-15T07:00:58;97467.09;;;-2.21;100.00
16834;BME280;8533;48.426;10.868;2023-02-15T07:03:26;97461.21;;;-2.17;100.00
16834;BME280;8533;48.426;10.868;2023-02-15T07:05:57;97457.80;;;-2.12;100.00
16834;BME280;8533;48.426;10.868;2023-02-15T07:08:26;97461.57;;;-2.07;100.00
16834;BME280;8533;48.426;10.868;2023-02-15T07:10:55;97457.66;;;-2.01;100.00
16834;BME280;8533;48.426;10.868;2023-02-15T07:13:27;97457.88;;;-1.99;100.00
16834;BME280;8533;48.426;10.868;2023-02-15T07:15:54;97462.53;;;-1.98;100.00
16834;BME280;8533;48.426;10.868;2023-02-15T07:18:22;97461.12;;;-1.97;100.00
16834;BME280;8533;48.426;10.868;2023-02-15T07:20:49;97466.38;;;-1.98;100.00
16834;BME280;8533;48.426;10.868;2023-02-15T07:23:17;97458.34;;;-1.99;100.00
16834;BME280;8533;48.426;10.868;2023-02-15T07:25:44;97459.70;;;-1.95;100.00
16834;BME280;8533;48.426;10.868;2023-02-15T07:28:12;97459.96;;;-1.98;100.00
16834;BME280;8533;48.426;10.868;2023-02-15T07:30:39;97469.20;;;-1.92;100.00
16834;BME280;8533;48.426;10.868;2023-02-15T07:33:06;97464.81;;;-1.85;100.00
16834;BME280;8533;48.426;10.868;2023-02-15T07:35:58;97465.77;;;-1.96;100.00
16834;BME280;8533;48.426;10.868;2023-02-15T07:38:31;97465.44;;;-1.97;100.00
16834;BME280;8533;48.426;10.868;2023-02-15T07:41:04;97458.42;;;-1.95;100.00
16834;BME280;8533;48.426;10.868;2023-02-15T07:43:35;97458.75;;;-1.84;100.00
16834;BME280;8533;48.426;10.868;2023-02-15T07:46:05;97459.03;;;-1.87;100.00
16834;BME280;8533;48.426;10.868;2023-02-15T07:48:34;97456.18;;;-1.84;100.00
16834;BME280;8533;48.426;10.868;2023-02-15T07:51:04;97456.39;;;-1.92;100.00
16834;BME280;8533;48.426;10.868;2023-02-15T07:53:32;97452.20;;;-1.93;100.00
16834;BME280;8533;48.426;10.868;2023-02-15T07:56:02;97452.19;;;-2.02;100.00
16834;BME280;8533;48.426;10.868;2023-02-15T07:58:30;97448.70;;;-1.92;100.00
16834;BME280;8533;48.426;10.868;2023-02-15T08:01:15;97448.69;;;-2.01;100.00
16834;BME280;8533;48.426;10.868;2023-02-15T08:03:43;97448.31;;;-1.87;100.00
16834;BME280;8533;48.426;10.868;2023-02-15T08:06:10;97445.39;;;-1.98;100.00
16834;BME280;8533;48.426;10.868;2023-02-15T08:08:40;97441.77;;;-1.95;100.00
16834;BME280;8533;48.426;10.868;2023-02-15T08:11:26;97430.41;;;-1.93;100.00
16834;BME280;8533;48.426;10.868;2023-02-15T08:13:57;97437.50;;;-1.90;100.00
16834;BME280;8533;48.426;10.868;2023-02-15T08:16:28;97439.66;;;-1.76;100.00
16834;BME280;8533;48.426;10.868;2023-02-15T08:18:57;97435.89;;;-1.72;100.00
16834;BME280;8533;48.426;10.868;2023-02-15T08:21:27;97438.19;;;-1.79;100.00
16834;BME280;8533;48.426;10.868;2023-02-15T08:23:56;97437.64;;;-1.73;100.00
16834;BME280;8533;48.426;10.868;2023-02-15T08:26:24;97431.36;;;-1.84;100.00
16834;BME280;8533;48.426;10.868;2023-02-15T08:28:54;97437.69;;;-1.69;100.00
16834;BME280;8533;48.426;10.868;2023-02-15T08:31:22;97439.98;;;-1.56;100.00
16834;BME280;8533;48.426;10.868;2023-02-15T08:33:51;97440.79;;;-1.46;100.00
16834;BME280;8533;48.426;10.868;2023-02-15T08:36:21;97440.34;;;-1.32;100.00
16834;BME280;8533;48.426;10.868;2023-02-15T08:38:49;97429.19;;;-1.27;100.00
16834;BME280;8533;48.426;10.868;2023-02-15T08:41:22;97427.86;;;-1.31;100.00
16834;BME280;8533;48.426;10.868;2023-02-15T08:43:52;97430.60;;;-1.28;100.00
16834;BME280;8533;48.426;10.868;2023-02-15T08:46:21;97430.80;;;-1.26;100.00
16834;BME280;8533;48.426;10.868;2023-02-15T08:48:49;97432.55;;;-1.17;100.00
16834;BME280;8533;48.426;10.868;2023-02-15T08:51:22;97434.84;;;-1.13;100.00
16834;BME280;8533;48.426;10.868;2023-02-15T08:53:53;97440.02;;;-1.09;100.00
16834;BME280;8533;48.426;10.868;2023-02-15T08:56:25;97431.64;;;-1.11;100.00
16834;BME280;8533;48.426;10.868;2023-02-15T08:58:54;97438.16;;;-1.03;100.00
16834;BME280;8533;48.426;10.868;2023-02-15T09:01:25;97438.50;;;-1.02;100.00
16834;BME280;8533;48.426;10.868;2023-02-15T09:04:00;97438.61;;;-0.94;100.00
16834;BME280;8533;48.426;10.868;2023-02-15T09:06:28;97441.86;;;-1.16;100.00
16834;BME280;8533;48.426;10.868;2023-02-15T09:08:56;97439.75;;;-1.06;100.00
16834;BME280;8533;48.426;10.868;2023-02-15T09:11:28;97442.22;;;-1.01;100.00
16834;BME280;8533;48.426;10.868;2023-02-15T09:14:01;97433.17;;;-1.28;100.00
16834;BME280;8533;48.426;10.868;2023-02-15T09:16:29;97434.22;;;-1.21;100.00
16834;BME280;8533;48.426;10.868;2023-02-15T09:18:57;97435.94;;;-1.02;100.00
16834;BME280;8533;48.426;10.868;2023-02-15T09:21:26;97434.76;;;-0.94;100.00
16834;BME280;8533;48.426;10.868;2023-02-15T09:24:03;97436.43;;;-1.12;100.00
16834;BME280;8533;48.426;10.868;2023-02-15T09:26:30;97435.78;;;-1.14;100.00
16834;BME280;8533;48.426;10.868;2023-02-15T09:29:00;97435.13;;;-1.26;100.00
16834;BME280;8533;48.426;10.868;2023-02-15T09:31:32;97441.48;;;-0.97;100.00
16834;BME280;8533;48.426;10.868;2023-02-15T09:34:00;97436.48;;;-0.85;100.00
16834;BME280;8533;48.426;10.868;2023-02-15T09:36:36;97435.53;;;-0.84;100.00
16834;BME280;8533;48.426;10.868;2023-02-15T09:39:13;97435.36;;;-0.73;100.00
16834;BME280;8533;48.426;10.868;2023-02-15T09:56:31;97429.06;;;-0.16;100.00
16834;BME280;8533;48.426;10.868;2023-02-15T10:07:08;97430.35;;;0.37;100.00
16834;BME280;8533;48.426;10.868;2023-02-15T10:09:52;97428.33;;;0.49;100.00
16834;BME280;8533;48.426;10.868;2023-02-15T10:12:48;97427.03;;;0.45;100.00
16834;BME280;8533;48.426;10.868;2023-02-15T10:18:21;97427.05;;;0.71;100.00
16834;BME280;8533;48.426;10.868;2023-02-15T10:26:20;97423.75;;;1.12;100.00
16834;BME280;8533;48.426;10.868;2023-02-15T10:29:05;97417.61;;;1.05;100.00
16834;BME280;8533;48.426;10.868;2023-02-15T10:31:28;97415.62;;;0.99;100.00
16834;BME280;8533;48.426;10.868;2023-02-15T10:34:25;97408.92;;;1.10;100.00
16834;BME280;8533;48.426;10.868;2023-02-15T10:37:12;97411.86;;;1.20;100.00
16834;BME280;8533;48.426;10.868;2023-02-15T10:53:12;97392.36;;;1.67;100.00
16834;BME280;8533;48.426;10.868;2023-02-15T10:59:03;97378.38;;;1.98;100.00
16834;BME280;8533;48.426;10.868;2023-02-15T11:04:32;97368.23;;;2.09;100.00
16834;BME280;8533;48.426;10.868;2023-02-15T11:06:59;97359.19;;;2.29;100.00
16834;BME280;8533;48.426;10.868;2023-02-15T11:09:33;97355.81;;;2.24;100.00
16834;BME280;8533;48.426;10.868;2023-02-15T11:11:59;97354.68;;;2.23;100.00
16834;BME280;8533;48.426;10.868;2023-02-15T11:17:33;97345.47;;;1.80;100.00
16834;BME280;8533;48.426;10.868;2023-02-15T11:19:58;97339.20;;;1.99;100.00
16834;BME280;8533;48.426;10.868;2023-02-15T11:22:29;97331.62;;;2.05;100.00
16834;BME280;8533;48.426;10.868;2023-02-15T11:24:58;97335.33;;;2.15;100.00
16834;BME280;8533;48.426;10.868;2023-02-15T11:27:31;97332.40;;;2.38;100.00
16834;BME280;8533;48.426;10.868;2023-02-15T11:30:13;97328.03;;;2.51;100.00
16834;BME280;8533;48.426;10.868;2023-02-15T11:32:43;97321.57;;;2.47;100.00
16834;BME280;8533;48.426;10.868;2023-02-15T11:35:19;97319.09;;;2.69;100.00
16834;BME280;8533;48.426;10.868;2023-02-15T11:37:46;97317.28;;;2.78;100.00
16834;BME280;8533;48.426;10.868;2023-02-15T11:43:00;97307.57;;;2.84;100.00
16834;BME280;8533;48.426;10.868;2023-02-15T11:45:31;97306.41;;;2.95;100.00
16834;BME280;8533;48.426;10.868;2023-02-15T11:48:01;97302.98;;;3.06;100.00
16834;BME280;8533;48.426;10.868;2023-02-15T11:50:32;97294.98;;;3.20;100.00
16834;BME280;8533;48.426;10.868;2023-02-15T11:53:02;97287.34;;;3.31;100.00
16834;BME280;8533;48.426;10.868;2023-02-15T11:55:31;97286.80;;;3.39;100.00
16834;BME280;8533;48.426;10.868;2023-02-15T12:00:50;97280.25;;;3.52;100.00
16834;BME280;8533;48.426;10.868;2023-02-15T12:03:26;97272.27;;;3.61;100.00
16834;BME280;8533;48.426;10.868;2023-02-15T12:05:53;97270.65;;;3.37;100.00
16834;BME280;8533;48.426;10.868;2023-02-15T12:08:21;97272.27;;;3.38;100.00
16834;BME280;8533;48.426;10.868;2023-02-15T12:13:29;97265.63;;;3.40;100.00
16834;BME280;8533;48.426;10.868;2023-02-15T12:15:58;97253.38;;;3.79;100.00
16834;BME280;8533;48.426;10.868;2023-02-15T12:18:37;97257.45;;;4.11;100.00
16834;BME280;8533;48.426;10.868;2023-02-15T12:21:07;97250.34;;;3.91;100.00
16834;BME280;8533;48.426;10.868;2023-02-15T12:23:40;97251.91;;;3.81;100.00
16834;BME280;8533;48.426;10.868;2023-02-15T12:26:05;97253.45;;;3.67;100.00
16834;BME280;8533;48.426;10.868;2023-02-15T12:28:40;97254.69;;;3.75;100.00
16834;BME280;8533;48.426;10.868;2023-02-15T12:31:09;97261.32;;;3.74;100.00
16834;BME280;8533;48.426;10.868;2023-02-15T12:33:43;97251.52;;;3.88;100.00
16834;BME280;8533;48.426;10.868;2023-02-15T12:36:12;97255.70;;;3.70;100.00
16834;BME280;8533;48.426;10.868;2023-02-15T12:38:40;97248.53;;;3.76;100.00
16834;BME280;8533;48.426;10.868;2023-02-15T12:41:23;97248.85;;;3.77;100.00
16834;BME280;8533;48.426;10.868;2023-02-15T12:44:09;97243.19;;;3.78;100.00
16834;BME280;8533;48.426;10.868;2023-02-15T12:46:35;97246.64;;;4.22;100.00
16834;BME280;8533;48.426;10.868;2023-02-15T12:51:45;97231.57;;;4.26;100.00
16834;BME280;8533;48.426;10.868;2023-02-15T12:54:30;97227.30;;;4.73;100.00
16834;BME280;8533;48.426;10.868;2023-02-15T12:56:54;97218.02;;;5.25;100.00
16834;BME280;8533;48.426;10.868;2023-02-15T12:59:24;97218.15;;;5.49;100.00
16834;BME280;8533;48.426;10.868;2023-02-15T13:01:52;97208.38;;;5.30;100.00
16834;BME280;8533;48.426;10.868;2023-02-15T13:04:28;97204.06;;;5.16;100.00
16834;BME280;8533;48.426;10.868;2023-02-15T13:06:56;97194.61;;;5.29;100.00
16834;BME280;8533;48.426;10.868;2023-02-15T13:09:36;97197.45;;;5.03;100.00
16834;BME280;8533;48.426;10.868;2023-02-15T13:12:10;97204.64;;;4.86;100.00
16834;BME280;8533;48.426;10.868;2023-02-15T13:14:42;97200.42;;;5.31;100.00
16834;BME280;8533;48.426;10.868;2023-02-15T13:17:10;97192.83;;;5.51;100.00
16834;BME280;8533;48.426;10.868;2023-02-15T13:19:47;97201.28;;;5.49;100.00
16834;BME280;8533;48.426;10.868;2023-02-15T13:22:16;97199.72;;;5.44;100.00
16834;BME280;8533;48.426;10.868;2023-02-15T13:24:58;97199.66;;;5.06;100.00
16834;BME280;8533;48.426;10.868;2023-02-15T13:27:39;97192.27;;;5.24;100.00
16834;BME280;8533;48.426;10.868;2023-02-15T13:30:02;97186.09;;;5.25;100.00
16834;BME280;8533;48.426;10.868;2023-02-15T13:32:36;97191.89;;;5.16;100.00
16834;BME280;8533;48.426;10.868;2023-02-15T13:35:05;97187.34;;;5.18;100.00
16834;BME280;8533;48.426;10.868;2023-02-15T13:37:45;97188.69;;;5.25;100.00
16834;BME280;8533;48.426;10.868;2023-02-15T13:40:19;97186.58;;;5.56;100.00
16834;BME280;8533;48.426;10.868;2023-02-15T13:42:47;97185.45;;;5.44;100.00
16834;BME280;8533;48.426;10.868;2023-02-15T13:45:27;97179.66;;;5.21;100.00
16834;BME280;8533;48.426;10.868;2023-02-15T13:48:02;97183.31;;;5.16;100.00
16834;BME280;8533;48.426;10.868;2023-02-15T13:53:17;97172.02;;;5.23;100.00
16834;BME280;8533;48.426;10.868;2023-02-15T13:55:52;97165.30;;;5.18;100.00
16834;BME280;8533;48.426;10.868;2023-02-15T13:58:25;97167.30;;;5.12;100.00
16834;BME280;8533;48.426;10.868;2023-02-15T14:01:08;97160.94;;;5.36;100.00
16834;BME280;8533;48.426;10.868;2023-02-15T14:03:55;97162.86;;;5.27;100.00
16834;BME280;8533;48.426;10.868;2023-02-15T14:06:40;97161.61;;;5.55;100.00
16834;BME280;8533;48.426;10.868;2023-02-15T14:09:21;97159.59;;;5.40;100.00
16834;BME280;8533;48.426;10.868;2023-02-15T14:14:45;97160.39;;;5.51;100.00
16834;BME280;8533;48.426;10.868;2023-02-15T14:20:21;97157.09;;;5.53;100.00
16834;BME280;8533;48.426;10.868;2023-02-15T14:30:20;97164.16;;;5.38;100.00
16834;BME280;8533;48.426;10.868;2023-02-15T14:32:49;97165.53;;;5.34;100.00
16834;BME280;8533;48.426;10.868;2023-02-15T14:35:23;97165.90;;;5.42;100.00
16834;BME280;8533;48.426;10.868;2023-02-15T14:40:42;97160.45;;;5.36;100.00
16834;BME280;8533;48.426;10.868;2023-02-15T14:46:38;97172.66;;;5.53;100.00
16834;BME280;8533;48.426;10.868;2023-02-15T14:49:10;97171.14;;;5.48;100.00
16834;BME280;8533;48.426;10.868;2023-02-15T15:02:18;97178.61;;;5.47;100.00
16834;BME280;8533;48.426;10.868;2023-02-15T15:07:36;97170.38;;;5.44;100.00
16834;BME280;8533;48.426;10.868;2023-02-15T15:10:06;97169.22;;;5.46;100.00
16834;BME280;8533;48.426;10.868;2023-02-15T15:12:37;97171.19;;;5.44;100.00
16834;BME280;8533;48.426;10.868;2023-02-15T15:15:05;97177.00;;;5.57;100.00
16834;BME280;8533;48.426;10.868;2023-02-15T15:25:47;97181.14;;;5.30;100.00
16834;BME280;8533;48.426;10.868;2023-02-15T15:31:29;97178.78;;;5.03;100.00